Time;durP1;ratioP1;P1;durP2;ratioP2;P2;SDS_P1;SDS_P2;PMS_P1;PMS_P2;Temp;Humidity;BMP_temperature;BMP_pressure;BME280_temperature;BME280_humidity;BME280_pressure;Samples;Min_cycle;Max_cycle;Signal;HPM_P1;HPM_P2
2021/07/30 00:00:47;;;;;;;16.43;6.30;;;;;;;20.74;54.53;98622.54;125054;1100;103044;-85
2021/07/30 00:03:25;;;;;;;16.27;6.00;;;;;;;20.73;54.35;98620.86;125283;1100;103089;-86
2021/07/30 00:05:54;;;;;;;17.60;6.13;;;;;;;20.71;54.32;98622.09;125632;1098;102968;-87
2021/07/30 00:08:23;;;;;;;18.67;6.70;;;;;;;20.68;54.50;98624.14;125580;1099;102986;-83
2021/07/30 00:10:58;;;;;;;14.10;6.47;;;;;;;20.64;54.27;98628.24;125592;1098;103010;-86
2021/07/30 00:13:29;;;;;;;14.17;6.60;;;;;;;20.57;54.31;98631.89;125610;1100;102948;-85
2021/07/30 00:15:58;;;;;;;12.37;6.17;;;;;;;20.55;54.47;98631.23;125603;1100;103031;-87
2021/07/30 00:18:31;;;;;;;13.73;6.50;;;;;;;20.52;54.71;98630.59;125638;1100;103466;-86
2021/07/30 00:21:02;;;;;;;14.47;6.37;;;;;;;20.51;54.83;98626.20;125666;1100;102998;-85
2021/07/30 00:23:33;;;;;;;14.83;5.90;;;;;;;20.51;54.44;98628.91;125619;1098;102946;-86
2021/07/30 00:26:04;;;;;;;14.57;6.00;;;;;;;20.51;54.63;98631.61;125585;1098;103097;-84
2021/07/30 00:28:33;;;;;;;14.50;6.20;;;;;;;20.53;54.72;98636.81;125009;1100;102927;-86
2021/07/30 00:31:06;;;;;;;11.53;5.73;;;;;;;20.53;54.66;98626.01;125705;1099;103048;-87
2021/07/30 00:33:39;;;;;;;12.13;6.07;;;;;;;20.56;54.81;98630.22;125045;1099;102993;-85
2021/07/30 00:36:07;;;;;;;14.25;5.98;;;;;;;20.53;54.96;98626.86;125602;1098;102949;-87
2021/07/30 00:38:36;;;;;;;12.23;6.10;;;;;;;20.55;54.71;98632.06;125585;1100;103083;-86
2021/07/30 00:41:05;;;;;;;13.10;6.10;;;;;;;20.57;54.83;98626.48;125659;1100;103085;-88
2021/07/30 00:43:33;;;;;;;13.63;6.57;;;;;;;20.58;54.83;98626.29;125624;1100;102925;-88
2021/07/30 00:46:06;;;;;;;18.98;7.88;;;;;;;20.55;54.97;98625.84;125044;1100;102925;-88
2021/07/30 00:48:42;;;;;;;14.60;6.97;;;;;;;20.48;54.99;98621.17;125579;1100;103597;-88
2021/07/30 00:51:15;;;;;;;15.90;7.53;;;;;;;20.38;55.09;98624.14;125683;1098;102933;-91
2021/07/30 00:53:47;;;;;;;16.60;6.97;;;;;;;20.18;54.74;98625.72;125669;1098;102995;-89
2021/07/30 00:56:19;;;;;;;18.40;8.07;;;;;;;19.96;54.58;98627.45;125820;1098;103047;-89
2021/07/30 00:58:55;;;;;;;14.90;6.97;;;;;;;19.86;54.73;98619.60;125827;1098;103005;-89
2021/07/30 01:01:25;;;;;;;19.80;7.90;;;;;;;19.73;54.96;98622.92;125666;1099;103050;-89
2021/07/30 01:04:04;;;;;;;17.47;7.67;;;;;;;19.61;55.08;98620.65;125695;1098;103014;-88
2021/07/30 01:06:33;;;;;;;16.97;8.03;;;;;;;19.47;55.34;98618.73;125648;1096;103044;-88
2021/07/30 01:09:11;;;;;;;17.30;7.38;;;;;;;19.31;54.96;98620.55;125392;1100;103432;-88
2021/07/30 01:11:44;;;;;;;18.40;8.23;;;;;;;19.21;55.34;98613.68;125727;1098;103094;-90
2021/07/30 01:14:13;;;;;;;16.73;7.40;;;;;;;19.24;55.76;98618.72;125648;1098;102998;-88
2021/07/30 01:16:46;;;;;;;15.27;7.23;;;;;;;19.26;55.08;98617.54;125654;1098;103074;-89
2021/07/30 01:19:26;;;;;;;18.33;7.33;;;;;;;19.30;55.72;98613.47;125645;1098;102974;-88
2021/07/30 01:22:10;;;;;;;15.97;7.60;;;;;;;19.31;55.82;98612.45;125777;1098;103025;-88
2021/07/30 01:24:41;;;;;;;15.40;6.93;;;;;;;19.23;55.64;98606.25;125616;1100;103024;-87
2021/07/30 01:27:16;;;;;;;16.23;6.93;;;;;;;19.12;55.76;98612.91;125640;1099;103099;-87
2021/07/30 01:29:47;;;;;;;14.40;7.03;;;;;;;18.92;55.61;98617.88;125514;1100;102917;-88
2021/07/30 01:32:22;;;;;;;16.33;7.10;;;;;;;18.56;55.76;98619.20;125571;1098;103004;-87
2021/07/30 01:34:54;;;;;;;18.27;7.77;;;;;;;18.27;55.93;98618.81;125634;1098;103007;-87
2021/07/30 01:37:26;;;;;;;18.35;7.90;;;;;;;18.17;56.31;98618.16;125778;1097;101949;-87
2021/07/30 01:39:55;;;;;;;16.87;7.03;;;;;;;18.23;56.52;98622.01;124927;1098;102954;-88
2021/07/30 01:42:24;;;;;;;17.53;7.67;;;;;;;18.28;56.56;98612.42;125860;1096;103249;-85
2021/07/30 01:44:52;;;;;;;15.33;7.07;;;;;;;18.21;56.33;98618.64;125698;1098;102936;-88
2021/07/30 01:47:27;;;;;;;17.37;7.70;;;;;;;18.19;56.69;98613.45;125643;1096;102922;-91
2021/07/30 01:49:55;;;;;;;15.45;7.75;;;;;;;18.19;56.75;98612.59;125693;1098;102580;-87
2021/07/30 01:52:24;;;;;;;14.90;7.13;;;;;;;18.20;56.91;98615.13;125570;1096;103075;-87
2021/07/30 01:54:52;;;;;;;17.53;7.83;;;;;;;18.23;57.01;98616.63;125585;1098;102974;-86
2021/07/30 01:57:21;;;;;;;18.53;8.50;;;;;;;18.16;56.87;98613.79;125605;1098;103054;-88
2021/07/30 01:59:49;;;;;;;18.70;8.50;;;;;;;18.18;57.17;98602.84;125675;1098;103071;-86
2021/07/30 02:02:17;;;;;;;15.80;7.00;;;;;;;18.22;57.37;98607.72;125728;1096;103004;-87
2021/07/30 02:04:53;;;;;;;15.63;7.17;;;;;;;18.25;57.11;98612.77;125699;1098;102924;-90
2021/07/30 02:07:22;;;;;;;16.83;7.37;;;;;;;18.28;57.38;98608.88;126134;1096;102873;-86
2021/07/30 02:09:52;;;;;;;15.60;7.10;;;;;;;18.30;57.05;98604.16;125979;1098;101846;-83
2021/07/30 02:12:23;;;;;;;17.33;7.53;;;;;;;18.33;57.62;98611.07;125689;1100;102997;-86
2021/07/30 02:14:51;;;;;;;17.27;7.50;;;;;;;18.33;57.63;98619.97;125695;1096;103062;-89
2021/07/30 02:17:20;;;;;;;17.63;7.93;;;;;;;18.35;57.30;98619.78;125684;1100;103058;-87
2021/07/30 02:19:52;;;;;;;19.23;8.10;;;;;;;18.35;57.46;98606.32;125560;1100;103122;-86
2021/07/30 02:22:22;;;;;;;19.33;8.77;;;;;;;18.36;57.62;98610.70;125535;1097;102954;-84
2021/07/30 02:24:50;;;;;;;17.50;8.20;;;;;;;18.37;57.80;98610.53;125505;1100;102938;-83
2021/07/30 02:27:18;;;;;;;17.30;8.70;;;;;;;18.39;57.76;98613.89;125648;1098;103019;-88
2021/07/30 02:29:49;;;;;;;17.77;8.80;;;;;;;18.40;57.98;98614.72;125697;1096;103007;-88
2021/07/30 02:32:17;;;;;;;18.87;8.77;;;;;;;18.38;57.72;98611.36;125642;1098;103028;-86
2021/07/30 02:34:46;;;;;;;17.83;8.67;;;;;;;18.32;58.09;98623.67;125588;1100;103012;-86
2021/07/30 02:37:16;;;;;;;16.90;9.13;;;;;;;18.31;57.81;98619.30;125702;1098;103029;-88
2021/07/30 02:39:46;;;;;;;18.20;9.03;;;;;;;18.30;58.33;98618.48;125534;1098;103011;-86
2021/07/30 02:42:17;;;;;;;18.90;9.37;;;;;;;18.32;58.18;98620.16;125566;1098;103039;-87
2021/07/30 02:44:46;;;;;;;17.03;9.30;;;;;;;18.31;58.35;98619.30;125590;1098;102929;-87
2021/07/30 02:47:14;;;;;;;20.43;9.77;;;;;;;18.22;58.06;98621.19;125616;1098;103071;-88
2021/07/30 02:49:42;;;;;;;21.93;10.43;;;;;;;17.98;58.24;98617.48;125616;1100;102944;-85
2021/07/30 02:52:11;;;;;;;19.00;9.53;;;;;;;17.78;58.41;98614.31;125512;1100;103019;-84
2021/07/30 02:54:39;;;;;;;19.30;9.63;;;;;;;17.75;58.45;98614.64;125503;1100;103231;-83
2021/07/30 02:57:07;;;;;;;20.05;10.45;;;;;;;17.75;58.30;98611.13;124928;1100;102942;-83
2021/07/30 02:59:36;;;;;;;20.50;9.47;;;;;;;17.78;58.92;98611.62;125543;1100;103022;-83
2021/07/30 03:02:06;;;;;;;18.47;9.70;;;;;;;17.81;58.68;98603.21;125569;1097;103071;-83
2021/07/30 03:04:34;;;;;;;17.70;8.95;;;;;;;17.85;58.86;98606.42;125542;1100;103100;-83
2021/07/30 03:07:05;;;;;;;18.07;8.87;;;;;;;17.87;59.10;98601.71;125525;1099;103148;-84
2021/07/30 03:09:35;;;;;;;20.37;9.80;;;;;;;17.87;58.79;98601.71;125584;1096;103019;-83
2021/07/30 03:12:04;;;;;;;21.00;10.60;;;;;;;17.88;59.03;98606.08;125564;1098;103099;-83
2021/07/30 03:14:33;;;;;;;22.40;10.35;;;;;;;17.82;59.16;98609.45;125602;1098;102941;-83
2021/07/30 03:17:03;;;;;;;19.20;9.80;;;;;;;17.78;59.30;98608.93;125571;1098;103022;-84
2021/07/30 03:19:34;;;;;;;19.40;9.07;;;;;;;17.81;59.17;98610.45;124941;1100;102943;-84
2021/07/30 03:22:04;;;;;;;18.03;9.03;;;;;;;17.82;59.59;98606.76;125559;1098;102956;-83
2021/07/30 03:24:33;;;;;;;18.90;9.75;;;;;;;17.82;59.16;98606.76;125534;1100;103008;-86
2021/07/30 03:27:06;;;;;;;21.97;10.00;;;;;;;17.74;59.09;98607.59;125555;1095;103002;-86
2021/07/30 03:29:34;;;;;;;21.13;10.00;;;;;;;17.63;59.42;98616.02;125594;1098;103046;-87
2021/07/30 03:32:03;;;;;;;22.83;10.97;;;;;;;17.56;59.81;98616.69;125579;1096;103017;-87
2021/07/30 03:34:33;;;;;;;21.87;10.60;;;;;;;17.55;59.66;98614.14;125558;1097;102943;-85
2021/07/30 03:37:03;;;;;;;20.17;10.10;;;;;;;17.54;59.73;98615.16;125498;1097;102927;-86
2021/07/30 03:39:32;;;;;;;20.70;10.53;;;;;;;17.53;59.63;98614.33;125523;1098;103052;-86
2021/07/30 03:42:00;;;;;;;19.83;10.90;;;;;;;17.50;60.16;98613.84;125591;1097;103132;-82
2021/07/30 03:44:28;;;;;;;19.13;9.70;;;;;;;17.46;59.73;98612.48;125557;1096;102961;-81
2021/07/30 03:46:57;;;;;;;21.63;11.03;;;;;;;17.47;60.20;98614.17;125548;1100;102959;-80
2021/07/30 03:49:27;;;;;;;19.70;10.75;;;;;;;17.47;60.27;98614.99;125533;1096;103012;-80
2021/07/30 03:51:55;;;;;;;21.00;10.90;;;;;;;17.49;60.25;98612.98;125597;1096;102920;-80
2021/07/30 03:54:23;;;;;;;20.30;10.77;;;;;;;17.54;60.51;98613.32;125576;1098;103077;-79
2021/07/30 03:56:51;;;;;;;21.30;9.90;;;;;;;17.59;60.19;98615.50;125521;1096;103052;-85
2021/07/30 03:59:20;;;;;;;23.53;9.93;;;;;;;17.66;60.61;98618.38;125558;1096;102923;-85
2021/07/30 04:01:51;;;;;;;20.37;10.43;;;;;;;17.71;60.74;98616.02;125580;1097;103012;-87
2021/07/30 04:04:19;;;;;;;18.10;9.77;;;;;;;17.76;60.59;98619.02;125575;1098;102932;-86
2021/07/30 04:06:48;;;;;;;20.53;10.13;;;;;;;17.81;60.55;98615.84;125583;1098;103003;-81
2021/07/30 04:09:16;;;;;;;18.85;9.85;;;;;;;17.83;60.71;98614.64;125677;1096;103084;-82
2021/07/30 04:11:48;;;;;;;19.77;9.80;;;;;;;17.85;60.45;98611.80;125627;1098;103112;-83
2021/07/30 04:14:16;;;;;;;23.47;9.83;;;;;;;17.84;60.53;98613.64;125569;1096;102923;-84
2021/07/30 04:16:45;;;;;;;20.30;10.17;;;;;;;17.84;61.13;98610.95;125669;1096;103009;-85
2021/07/30 04:19:13;;;;;;;18.50;9.47;;;;;;;17.85;61.06;98617.18;125602;1096;103106;-86
2021/07/30 04:21:44;;;;;;;19.93;9.93;;;;;;;17.87;61.10;98607.09;125656;1096;103024;-88
2021/07/30 04:24:14;;;;;;;18.75;9.35;;;;;;;17.91;61.26;98605.75;125643;1096;103038;-84
2021/07/30 04:26:46;;;;;;;19.27;9.30;;;;;;;17.95;61.03;98608.92;126697;1096;103010;-87
2021/07/30 04:29:14;;;;;;;19.00;9.43;;;;;;;18.01;61.01;98610.97;125675;1096;102917;-80
2021/07/30 04:31:45;;;;;;;21.20;9.50;;;;;;;18.06;61.18;98603.22;125712;1096;102948;-79
2021/07/30 04:34:13;;;;;;;20.07;9.50;;;;;;;18.16;61.35;98608.41;125673;1098;102920;-79
2021/07/30 04:36:41;;;;;;;21.30;9.35;;;;;;;18.22;61.76;98606.87;125643;1097;103087;-77
2021/07/30 04:39:10;;;;;;;19.67;9.53;;;;;;;18.30;61.79;98614.92;125598;1098;103607;-77
2021/07/30 04:41:39;;;;;;;18.07;9.17;;;;;;;18.36;61.36;98602.61;125494;1098;103005;-79
2021/07/30 04:44:07;;;;;;;20.00;9.53;;;;;;;18.43;61.82;98611.69;125433;1098;102975;-80
2021/07/30 04:46:35;;;;;;;19.57;10.13;;;;;;;18.51;61.93;98608.14;125447;1098;103014;-78
2021/07/30 04:49:04;;;;;;;19.23;9.27;;;;;;;18.56;61.79;98611.98;125460;1098;103428;-77
2021/07/30 04:51:35;;;;;;;18.80;9.37;;;;;;;18.63;61.44;98611.28;125424;1098;102954;-78
2021/07/30 04:54:03;;;;;;;22.07;9.07;;;;;;;18.69;61.74;98614.11;125619;1098;102925;-79
2021/07/30 04:56:31;;;;;;;20.10;9.70;;;;;;;18.75;61.72;98605.33;125603;1098;103041;-79
2021/07/30 04:59:00;;;;;;;18.23;9.23;;;;;;;18.83;61.76;98607.13;125601;1098;103007;-81
2021/07/30 05:01:28;;;;;;;19.00;8.70;;;;;;;18.89;61.89;98608.30;125616;1099;103020;-79
2021/07/30 05:03:57;;;;;;;20.60;8.83;;;;;;;18.96;62.17;98605.76;125615;1098;103414;-80
2021/07/30 05:06:27;;;;;;;19.10;9.03;;;;;;;19.04;62.42;98608.41;125610;1100;102812;-81
2021/07/30 05:08:56;;;;;;;17.77;9.60;;;;;;;19.10;61.75;98609.55;125678;1098;103025;-81
2021/07/30 05:11:24;;;;;;;20.63;9.47;;;;;;;19.16;61.86;98604.27;125608;1098;103089;-80
2021/07/30 05:13:52;;;;;;;20.50;9.40;;;;;;;19.22;62.11;98609.97;125645;1100;103023;-80
2021/07/30 05:16:21;;;;;;;19.37;8.93;;;;;;;19.28;62.27;98604.72;125459;1098;102916;-81
2021/07/30 05:18:51;;;;;;;17.57;8.97;;;;;;;19.34;62.01;98608.55;125643;1098;102944;-82
2021/07/30 05:21:23;;;;;;;18.00;8.75;;;;;;;19.39;61.66;98600.77;125650;1098;102923;-83
2021/07/30 05:23:52;;;;;;;18.47;8.97;;;;;;;19.46;62.18;98608.95;125608;1100;102923;-86
2021/07/30 05:26:20;;;;;;;18.70;9.00;;;;;;;19.51;61.97;98601.17;125617;1098;103034;-83
2021/07/30 05:28:49;;;;;;;25.60;9.50;;;;;;;19.60;62.57;98604.63;125650;1098;102942;-84
2021/07/30 05:31:19;;;;;;;20.50;8.77;;;;;;;19.67;62.29;98608.28;125628;1096;103100;-82
2021/07/30 05:33:50;;;;;;;21.83;8.60;;;;;;;19.76;62.23;98606.38;125604;1099;103010;-82
2021/07/30 05:36:21;;;;;;;18.67;8.23;;;;;;;19.82;62.18;98605.61;125587;1098;103057;-80
2021/07/30 05:38:50;;;;;;;20.53;9.13;;;;;;;19.89;62.43;98603.90;125652;1100;103041;-81
2021/07/30 05:41:19;;;;;;;22.30;8.60;;;;;;;19.97;62.54;98613.77;125549;1100;103074;-83
2021/07/30 05:43:52;;;;;;;21.43;9.63;;;;;;;20.05;62.82;98600.19;125590;1100;103049;-80
2021/07/30 05:46:20;;;;;;;22.27;8.50;;;;;;;20.14;62.50;98605.52;125342;1097;102987;-72
2021/07/30 05:48:52;;;;;;;19.47;9.20;;;;;;;20.22;62.30;98605.44;125381;1098;103164;-78
2021/07/30 05:51:22;;;;;;;19.27;9.00;;;;;;;20.30;62.30;98605.34;125559;1100;103087;-78
2021/07/30 05:53:52;;;;;;;16.77;7.83;;;;;;;20.37;62.68;98602.73;125395;1097;102929;-78
2021/07/30 05:56:21;;;;;;;16.53;8.43;;;;;;;20.48;62.88;98598.71;125568;1100;103007;-80
2021/07/30 05:58:49;;;;;;;18.23;8.33;;;;;;;20.57;62.58;98600.30;125505;1098;103006;-78
2021/07/30 06:01:17;;;;;;;18.80;7.93;;;;;;;20.68;62.31;98607.08;125481;1100;103151;-74
2021/07/30 06:03:49;;;;;;;17.83;8.30;;;;;;;20.77;62.83;98599.75;125412;1100;103007;-78
2021/07/30 06:06:19;;;;;;;18.07;8.00;;;;;;;20.86;62.61;98609.41;125413;1099;102954;-79
2021/07/30 06:08:49;;;;;;;19.67;8.23;;;;;;;20.94;62.57;98603.07;125419;1100;102983;-82
2021/07/30 16:03:05;;;;;;;12.23;5.83;;;;;;;29.46;38.47;98216.97;125472;1093;103094;-76
2021/07/30 16:05:34;;;;;;;14.50;6.70;;;;;;;29.45;38.56;98219.98;125460;1096;103016;-77
2021/07/30 16:08:07;;;;;;;14.50;6.03;;;;;;;29.46;38.66;98206.01;125458;1096;102916;-77
2021/07/30 16:10:42;;;;;;;15.10;6.90;;;;;;;29.48;38.24;98205.77;125491;1096;102946;-77
2021/07/30 16:13:10;;;;;;;11.37;5.50;;;;;;;29.48;38.58;98208.51;125504;1096;103106;-77
2021/07/30 16:15:39;;;;;;;10.83;5.87;;;;;;;29.45;38.68;98204.35;125483;1097;103088;-77
2021/07/30 16:18:07;;;;;;;10.20;5.47;;;;;;;29.45;38.06;98198.06;125481;1096;102951;-78
2021/07/30 16:20:36;;;;;;;13.47;5.43;;;;;;;29.43;38.38;98197.49;125526;1097;103022;-80
2021/07/30 16:23:06;;;;;;;10.63;5.57;;;;;;;29.43;38.69;98198.30;125572;1096;103029;-75
2021/07/30 16:25:35;;;;;;;11.65;5.85;;;;;;;29.43;38.46;98198.30;125471;1096;102987;-75
2021/07/30 16:28:04;;;;;;;12.93;6.07;;;;;;;29.43;38.12;98201.04;125441;1096;103091;-77
2021/07/30 16:30:32;;;;;;;12.57;6.03;;;;;;;29.41;38.86;98198.57;125475;1097;103029;-77
2021/07/30 16:33:09;;;;;;;11.33;5.63;;;;;;;29.43;38.40;98200.23;126115;1091;102978;-77
2021/07/30 16:35:37;;;;;;;11.63;6.17;;;;;;;29.43;38.70;98194.75;126063;1093;102919;-75
2021/07/30 16:38:05;;;;;;;11.53;5.93;;;;;;;29.41;38.46;98194.99;126042;1093;102900;-76
2021/07/30 16:40:34;;;;;;;15.70;6.20;;;;;;;29.41;38.87;98209.53;126049;1093;103053;-79
2021/07/30 16:43:03;;;;;;;11.23;5.70;;;;;;;29.38;38.58;98204.56;126092;1091;103157;-80
2021/07/30 16:45:31;;;;;;;14.80;6.10;;;;;;;29.34;38.61;98197.91;126129;1091;103396;-84
2021/07/30 16:48:06;;;;;;;12.07;6.27;;;;;;;29.33;38.77;98204.47;126117;1092;103057;-80
2021/07/30 16:50:43;;;;;;;10.90;5.87;;;;;;;29.29;38.56;98206.06;126155;1092;102924;-78
2021/07/30 16:53:11;;;;;;;14.83;6.30;;;;;;;29.27;38.50;98202.75;126014;1092;103143;-76
2021/07/30 16:55:43;;;;;;;12.17;6.00;;;;;;;29.22;39.18;98206.27;126024;1092;103054;-76
2021/07/30 16:58:11;;;;;;;15.13;6.60;;;;;;;29.19;38.60;98205.92;126018;1093;102965;-79
2021/07/30 17:00:39;;;;;;;13.87;5.97;;;;;;;29.15;39.01;98205.62;126087;1092;102984;-81
2021/07/30 17:03:08;;;;;;;11.43;5.70;;;;;;;29.11;38.78;98202.58;126064;1092;102984;-76
2021/07/30 17:05:36;;;;;;;17.87;6.27;;;;;;;29.07;38.65;98215.11;126253;1092;102929;-79
2021/07/30 17:08:05;;;;;;;12.77;5.43;;;;;;;29.01;38.81;98210.65;126106;1091;103142;-78
2021/07/30 17:10:40;;;;;;;11.13;5.73;;;;;;;28.96;39.23;98208.66;126140;1091;102926;-79
2021/07/30 17:13:08;;;;;;;11.90;5.90;;;;;;;28.90;39.30;98200.64;126076;1093;103014;-77
2021/07/30 17:15:43;;;;;;;10.50;5.60;;;;;;;28.86;39.29;98204.95;125793;1093;102900;-78
2021/07/30 17:18:11;;;;;;;10.57;5.67;;;;;;;28.82;39.46;98207.38;126064;1093;102975;-78
2021/07/30 17:20:40;;;;;;;10.93;5.63;;;;;;;28.78;39.58;98204.30;125760;1093;103042;-77
2021/07/30 17:23:08;;;;;;;8.77;5.00;;;;;;;28.76;39.43;98197.44;126019;1093;103373;-78
2021/07/30 17:25:36;;;;;;;12.83;5.70;;;;;;;28.73;39.48;98209.70;125781;1093;102981;-79
2021/07/30 17:28:04;;;;;;;14.40;6.00;;;;;;;28.68;39.59;98204.96;126060;1093;102997;-78
2021/07/30 17:30:38;;;;;;;14.77;6.47;;;;;;;28.64;39.51;98206.55;126080;1093;103517;-77
2021/07/30 17:33:06;;;;;;;13.17;6.43;;;;;;;28.60;39.77;98204.57;125733;1092;103113;-78
2021/07/30 17:35:34;;;;;;;14.50;6.57;;;;;;;28.56;39.32;98206.96;126030;1093;103007;-77
2021/07/30 17:38:03;;;;;;;12.33;6.30;;;;;;;28.55;39.50;98201.76;126049;1093;102959;-77
2021/07/30 17:40:38;;;;;;;11.23;5.90;;;;;;;28.51;39.69;98199.52;126056;1093;102901;-79
2021/07/30 17:43:07;;;;;;;12.93;6.97;;;;;;;28.51;39.77;98196.78;125998;1093;102999;-78
2021/07/30 17:45:39;;;;;;;15.63;6.90;;;;;;;28.50;39.90;98203.33;125764;1093;103006;-78
2021/07/30 17:48:08;;;;;;;13.07;6.27;;;;;;;28.51;39.94;98204.17;126030;1093;103234;-78
2021/07/30 17:50:36;;;;;;;22.20;11.83;;;;;;;28.50;39.99;98208.80;125853;1092;102929;-77
2021/07/30 17:53:05;;;;;;;21.60;10.73;;;;;;;28.46;39.92;98210.38;126027;1093;102879;-77
2021/07/30 17:55:34;;;;;;;20.30;8.53;;;;;;;28.43;40.29;98216.34;125739;1093;103054;-75
2021/07/30 17:58:02;;;;;;;17.70;7.60;;;;;;;28.37;40.64;98207.24;125984;1092;102929;-77
2021/07/30 18:00:37;;;;;;;19.57;7.13;;;;;;;28.33;40.53;98207.97;126029;1092;102999;-77
2021/07/30 18:03:06;;;;;;;19.03;7.73;;;;;;;28.26;40.67;98213.62;126013;1093;102974;-79
2021/07/30 18:05:39;;;;;;;17.37;8.00;;;;;;;28.17;40.61;98213.20;126080;1093;102908;-78
2021/07/30 18:08:08;;;;;;;22.57;8.40;;;;;;;28.10;40.83;98207.04;125744;1092;103089;-76
2021/07/30 18:10:36;;;;;;;30.03;10.00;;;;;;;28.03;40.74;98218.14;125761;1093;103149;-77
2021/07/30 18:13:04;;;;;;;28.93;9.57;;;;;;;27.97;41.01;98215.55;126035;1093;103010;-77
2021/07/30 18:15:33;;;;;;;24.27;9.03;;;;;;;27.91;41.19;98220.95;125725;1092;102991;-76
2021/07/30 18:18:01;;;;;;;22.90;9.10;;;;;;;27.83;41.52;98223.23;125783;1093;103015;-77
2021/07/30 18:20:29;;;;;;;21.17;8.77;;;;;;;27.73;41.43;98221.14;126017;1093;102933;-78
2021/07/30 18:22:58;;;;;;;20.07;8.30;;;;;;;27.68;41.46;98219.16;125802;1093;102905;-79
2021/07/30 18:25:32;;;;;;;20.30;8.73;;;;;;;27.64;41.73;98220.72;126050;1092;102999;-78
2021/07/30 18:28:01;;;;;;;18.43;7.97;;;;;;;27.54;41.65;98226.78;125748;1093;103012;-79
2021/07/30 18:30:29;;;;;;;20.60;9.63;;;;;;;27.42;42.25;98226.80;126010;1092;102908;-72
2021/07/30 18:32:58;;;;;;;22.33;9.47;;;;;;;27.35;42.00;98228.84;126011;1092;102936;-76
2021/07/30 18:35:26;;;;;;;20.53;9.90;;;;;;;27.30;41.95;98234.22;125736;1093;103055;-74
2021/07/30 18:37:54;;;;;;;20.97;10.60;;;;;;;27.21;42.23;98231.02;125730;1092;103007;-79
2021/07/30 18:40:23;;;;;;;20.50;10.07;;;;;;;27.13;42.74;98234.95;126101;1093;102904;-79
2021/07/30 18:42:54;;;;;;;22.73;9.73;;;;;;;27.05;42.49;98232.59;126139;1092;102932;-79
2021/07/30 18:45:28;;;;;;;25.73;9.70;;;;;;;26.99;43.02;98234.39;126170;1093;102988;-79
2021/07/30 18:47:56;;;;;;;24.43;11.37;;;;;;;26.89;42.89;98231.43;125972;1093;102932;-79
2021/07/30 18:50:25;;;;;;;24.53;10.37;;;;;;;26.77;43.32;98230.57;125772;1093;102990;-78
2021/07/30 18:52:53;;;;;;;25.07;10.10;;;;;;;26.66;43.37;98240.42;125960;1093;103052;-77
2021/07/30 18:55:22;;;;;;;22.73;9.50;;;;;;;26.57;43.68;98243.50;126023;1092;103007;-78
2021/07/30 18:57:57;;;;;;;20.70;10.03;;;;;;;26.48;43.68;98235.91;125996;1093;103002;-76
2021/07/30 19:00:25;;;;;;;20.27;9.90;;;;;;;26.38;43.73;98241.95;125973;1093;103084;-75
2021/07/30 19:02:53;;;;;;;23.73;9.43;;;;;;;26.27;43.84;98241.70;126000;1092;102938;-75
2021/07/30 19:05:31;;;;;;;23.10;9.50;;;;;;;26.20;44.01;98245.59;125991;1093;102925;-74
2021/07/30 19:07:59;;;;;;;19.50;9.27;;;;;;;26.12;44.50;98243.98;125857;1093;102932;-83
2021/07/30 19:10:28;;;;;;;22.20;10.70;;;;;;;26.01;44.51;98246.47;126214;1093;102981;-79
2021/07/30 19:13:03;;;;;;;24.17;10.13;;;;;;;25.91;44.75;98248.07;126140;1093;102905;-79
2021/07/30 19:15:33;;;;;;;20.30;9.50;;;;;;;25.80;44.75;98245.10;126018;1092;103637;-77
2021/07/30 19:18:02;;;;;;;24.20;10.03;;;;;;;25.69;44.56;98246.69;125991;1093;102933;-76
2021/07/30 19:20:30;;;;;;;20.77;9.77;;;;;;;25.62;45.50;98254.14;126043;1093;102914;-77
2021/07/30 19:22:58;;;;;;;22.10;9.47;;;;;;;25.53;45.45;98250.07;125959;1093;102919;-77
2021/07/30 19:25:30;;;;;;;20.50;9.97;;;;;;;25.45;45.06;98262.11;126005;1093;103078;-78
2021/07/30 19:27:58;;;;;;;23.20;9.13;;;;;;;25.37;45.44;98256.94;126008;1093;103078;-82
2021/07/30 19:30:27;;;;;;;22.97;9.67;;;;;;;25.29;45.80;98263.50;126005;1093;102903;-79
2021/07/30 19:32:57;;;;;;;21.25;9.90;;;;;;;25.22;45.87;98260.87;125985;1093;102930;-77
2021/07/30 19:35:29;;;;;;;22.57;8.60;;;;;;;25.14;46.24;98261.16;125972;1093;104588;-80
2021/07/30 19:37:57;;;;;;;18.13;8.43;;;;;;;25.06;46.24;98259.58;125900;1093;103098;-77
2021/07/30 19:40:26;;;;;;;19.90;9.17;;;;;;;25.02;46.59;98266.53;125986;1093;102996;-74
2021/07/30 19:42:59;;;;;;;20.00;9.47;;;;;;;24.93;46.49;98266.00;125687;1093;102911;-79
2021/07/30 19:45:27;;;;;;;19.37;9.10;;;;;;;24.87;47.13;98266.89;125881;1092;102909;-77
2021/07/30 19:47:56;;;;;;;19.90;9.97;;;;;;;24.80;46.98;98272.41;126013;1092;102987;-78
2021/07/30 19:50:24;;;;;;;19.67;9.77;;;;;;;24.73;47.24;98268.91;125989;1093;103406;-75
2021/07/30 19:52:54;;;;;;;20.70;10.40;;;;;;;24.67;46.86;98265.15;125989;1092;102882;-77
2021/07/30 19:55:27;;;;;;;22.50;9.73;;;;;;;24.63;47.13;98268.55;125970;1093;102981;-76
2021/07/30 19:57:56;;;;;;;22.13;9.80;;;;;;;24.56;47.29;98260.47;126024;1093;102927;-77
2021/07/30 20:00:24;;;;;;;20.80;9.47;;;;;;;24.50;48.11;98256.73;126041;1093;103095;-77
2021/07/30 20:02:55;;;;;;;22.90;9.40;;;;;;;24.45;47.91;98258.46;125949;1093;102907;-77
2021/07/30 20:05:30;;;;;;;19.27;9.33;;;;;;;24.37;47.77;98252.24;126042;1093;102910;-78
2021/07/30 20:08:01;;;;;;;20.77;9.03;;;;;;;24.32;47.81;98257.50;125936;1093;103531;-78
2021/07/30 20:10:30;;;;;;;19.37;9.30;;;;;;;24.26;47.99;98255.66;125958;1092;103001;-80
2021/07/30 20:12:58;;;;;;;19.40;8.67;;;;;;;24.21;48.40;98255.52;125711;1093;103011;-81
2021/07/30 20:15:26;;;;;;;18.20;9.40;;;;;;;24.12;48.46;98252.22;125735;1093;101862;-82
2021/07/30 20:17:55;;;;;;;26.17;11.97;;;;;;;24.06;48.72;98255.81;126264;1093;103193;-79
2021/07/30 20:20:26;;;;;;;22.45;9.95;;;;;;;24.02;48.43;98251.89;125730;1093;102987;-80
2021/07/30 20:22:54;;;;;;;20.67;9.03;;;;;;;23.98;48.64;98256.06;126075;1093;102943;-82
2021/07/30 20:25:23;;;;;;;20.97;9.57;;;;;;;23.92;49.00;98260.47;126078;1092;102994;-77
2021/07/30 20:27:51;;;;;;;18.20;9.43;;;;;;;23.86;49.23;98264.90;126081;1093;103081;-74
2021/07/30 20:30:26;;;;;;;19.30;9.07;;;;;;;23.81;48.91;98262.00;126029;1092;102926;-82
2021/07/30 20:32:57;;;;;;;20.07;9.97;;;;;;;23.74;49.02;98262.05;126504;1093;101742;-92
2021/07/30 20:35:26;;;;;;;20.70;8.40;;;;;;;23.69;49.19;98261.02;126364;1092;103323;-88
2021/07/30 20:37:54;;;;;;;19.37;10.37;;;;;;;23.63;49.75;98258.14;126218;1091;102999;-80
2021/07/30 20:40:22;;;;;;;24.87;10.70;;;;;;;23.58;49.37;98257.95;126231;1092;103109;-79
2021/07/30 20:42:51;;;;;;;25.17;9.93;;;;;;;23.53;49.83;98255.05;126038;1091;102933;-75
2021/07/30 20:45:19;;;;;;;24.23;9.80;;;;;;;23.49;49.97;98251.92;125995;1093;102906;-74
2021/07/30 20:47:48;;;;;;;19.20;9.77;;;;;;;23.45;49.63;98264.25;126033;1093;103055;-75
2021/07/30 20:50:16;;;;;;;20.20;9.60;;;;;;;23.39;49.87;98258.86;126018;1093;102977;-76
2021/07/30 20:52:44;;;;;;;23.30;9.73;;;;;;;23.37;50.21;98256.38;126065;1093;102706;-77
2021/07/30 20:55:12;;;;;;;20.90;10.33;;;;;;;23.37;50.02;98260.95;126082;1093;102913;-76
2021/07/30 20:57:41;;;;;;;20.87;8.97;;;;;;;23.35;50.03;98258.47;126026;1093;102935;-75
2021/07/30 21:00:12;;;;;;;16.93;8.57;;;;;;;23.31;50.61;98258.05;125813;1093;102987;-77
2021/07/30 21:02:43;;;;;;;17.53;8.67;;;;;;;23.27;50.30;98264.95;126021;1092;103005;-76
2021/07/30 21:05:12;;;;;;;20.37;8.87;;;;;;;23.22;50.84;98256.64;126002;1093;103151;-75
2021/07/30 21:07:40;;;;;;;21.33;8.50;;;;;;;23.20;50.43;98258.70;126071;1093;103007;-75
2021/07/30 21:10:11;;;;;;;21.40;10.60;;;;;;;23.15;50.64;98253.08;126025;1093;102999;-74
2021/07/30 21:12:39;;;;;;;25.37;14.07;;;;;;;23.13;50.67;98253.28;126023;1093;103055;-75